Time;durP1;ratioP1;P1;durP2;ratioP2;P2;SDS_P1;SDS_P2;PMS_P1;PMS_P2;Temp;Humidity;BMP_temperature;BMP_pressure;BME280_temperature;BME280_humidity;BME280_pressure;Samples;Min_cycle;Max_cycle;Signal;HPM_P1;HPM_P2
2022/03/16 00:02:25;;;;;;;5.20;4.70;;;;;;;;;;4982677;28;20505;-52
2022/03/16 00:04:52;;;;;;;9.37;5.57;;;;;;;;;;4984604;28;20450;-53
2022/03/16 00:07:18;;;;;;;6.03;5.43;;;;;;;;;;4983778;28;20469;-52
2022/03/16 00:09:45;;;;;;;9.80;5.60;;;;;;;;;;4983289;28;20939;-53
2022/03/16 00:12:11;;;;;;;5.93;5.37;;;;;;;;;;4968504;28;20900;-53
2022/03/16 00:14:37;;;;;;;6.20;5.37;;;;;;;;;;4985847;28;20427;-53
2022/03/16 00:17:04;;;;;;;6.60;5.20;;;;;;;;;;4982524;28;21182;-53
2022/03/16 00:19:31;;;;;;;14.07;6.10;;;;;;;;;;4982597;28;20566;-52
2022/03/16 00:21:58;;;;;;;8.40;6.03;;;;;;;;;;4984744;28;20983;-53
2022/03/16 00:24:24;;;;;;;6.53;4.83;;;;;;;;;;4985487;28;20528;-53
2022/03/16 00:26:50;;;;;;;9.87;5.47;;;;;;;;;;4966457;28;20434;-53
2022/03/16 00:29:16;;;;;;;10.17;5.67;;;;;;;;;;4982312;28;20530;-52
2022/03/16 00:31:42;;;;;;;5.90;5.33;;;;;;;;;;4982590;28;20506;-53
2022/03/16 00:34:08;;;;;;;10.63;6.57;;;;;;;;;;4985593;28;20421;-53
2022/03/16 00:36:34;;;;;;;6.83;5.77;;;;;;;;;;4985445;28;20476;-53
2022/03/16 00:38:59;;;;;;;6.97;4.73;;;;;;;;;;4982168;28;20474;-54
2022/03/16 00:41:25;;;;;;;7.00;4.60;;;;;;;;;;4982053;28;20430;-53
2022/03/16 00:43:52;;;;;;;6.27;5.43;;;;;;;;;;4983927;28;20423;-53
2022/03/16 00:46:18;;;;;;;6.37;5.70;;;;;;;;;;4985289;28;20484;-53
2022/03/16 00:48:44;;;;;;;5.73;5.23;;;;;;;;;;4966847;28;20490;-53
2022/03/16 00:51:10;;;;;;;8.37;6.10;;;;;;;;;;4981799;28;20491;-53
2022/03/16 00:53:39;;;;;;;7.50;5.83;;;;;;;;;;4981448;28;20463;-52
2022/03/16 00:56:06;;;;;;;7.13;5.80;;;;;;;;;;4985050;28;20422;-53
2022/03/16 00:58:32;;;;;;;6.63;5.93;;;;;;;;;;4985637;28;20687;-53
2022/03/16 01:00:58;;;;;;;4.73;4.37;;;;;;;;;;4984500;28;20440;-53
2022/03/16 01:03:25;;;;;;;6.13;5.40;;;;;;;;;;4984971;28;21000;-54
2022/03/16 01:05:51;;;;;;;6.37;5.70;;;;;;;;;;4982149;28;20430;-53
2022/03/16 01:08:17;;;;;;;6.27;5.67;;;;;;;;;;4982006;28;20418;-53
2022/03/16 01:10:43;;;;;;;5.67;4.60;;;;;;;;;;4983967;28;20974;-53
2022/03/16 01:13:09;;;;;;;7.60;6.17;;;;;;;;;;4981435;28;20505;-53
2022/03/16 01:15:35;;;;;;;6.73;5.97;;;;;;;;;;4981362;28;20419;-53
2022/03/16 01:18:01;;;;;;;6.97;5.10;;;;;;;;;;4984534;28;20429;-53
2022/03/16 01:20:28;;;;;;;7.47;5.40;;;;;;;;;;4984604;28;20429;-53
2022/03/16 01:22:54;;;;;;;7.03;5.93;;;;;;;;;;4982218;28;20920;-54
2022/03/16 01:25:20;;;;;;;8.47;7.00;;;;;;;;;;4981452;28;20434;-53
2022/03/16 01:27:46;;;;;;;7.37;5.43;;;;;;;;;;4982374;28;20430;-53
2022/03/16 01:30:15;;;;;;;7.40;6.57;;;;;;;;;;4984447;28;20474;-53
2022/03/16 01:32:41;;;;;;;7.50;6.00;;;;;;;;;;4983914;28;20414;-55
2022/03/16 01:35:08;;;;;;;8.13;5.60;;;;;;;;;;4980863;28;20505;-53
2022/03/16 01:37:34;;;;;;;5.97;5.43;;;;;;;;;;4980773;28;20573;-53
2022/03/16 01:40:00;;;;;;;6.00;5.50;;;;;;;;;;4983843;28;20422;-53
2022/03/16 01:42:26;;;;;;;6.67;4.53;;;;;;;;;;4966907;28;20437;-53
2022/03/16 01:44:53;;;;;;;5.33;4.83;;;;;;;;;;4982138;28;20422;-53
2022/03/16 01:47:20;;;;;;;5.90;4.40;;;;;;;;;;4980748;28;20434;-53
2022/03/16 01:49:47;;;;;;;7.63;6.07;;;;;;;;;;4981876;28;20430;-53
2022/03/16 01:52:18;;;;;;;5.57;5.00;;;;;;;;;;4983894;28;20461;-54
2022/03/16 01:54:44;;;;;;;6.50;4.40;;;;;;;;;;4982781;28;20469;-54
2022/03/16 01:57:11;;;;;;;5.47;4.20;;;;;;;;;;4985093;28;20517;-54
2022/03/16 01:59:40;;;;;;;7.13;4.83;;;;;;;;;;4983860;28;20433;-54
2022/03/16 02:02:06;;;;;;;5.70;5.20;;;;;;;;;;4980272;28;20518;-54
2022/03/16 02:04:32;;;;;;;7.53;4.83;;;;;;;;;;4980394;28;20434;-54
2022/03/16 02:06:59;;;;;;;5.00;4.53;;;;;;;;;;4983505;28;20476;-54
2022/03/16 02:09:25;;;;;;;6.00;4.67;;;;;;;;;;4980354;28;20432;-54
2022/03/16 02:11:51;;;;;;;5.00;4.50;;;;;;;;;;4982253;28;20477;-54
2022/03/16 02:14:20;;;;;;;8.70;5.60;;;;;;;;;;4983892;28;20829;-54
2022/03/16 02:16:46;;;;;;;5.70;4.63;;;;;;;;;;4982211;28;20430;-54
2022/03/16 02:19:12;;;;;;;7.13;5.50;;;;;;;;;;4980175;28;20533;-54
2022/03/16 02:21:40;;;;;;;8.07;5.70;;;;;;;;;;4980622;28;20827;-53
2022/03/16 02:24:06;;;;;;;5.43;4.77;;;;;;;;;;4962213;28;20925;-54
2022/03/16 02:26:32;;;;;;;7.20;5.00;;;;;;;;;;4980185;28;20438;-54
2022/03/16 02:28:58;;;;;;;5.70;4.87;;;;;;;;;;4983014;28;20418;-54
2022/03/16 02:31:25;;;;;;;12.50;5.57;;;;;;;;;;4983356;28;20477;-54
2022/03/16 02:33:51;;;;;;;8.20;5.73;;;;;;;;;;4981622;28;20426;-54
2022/03/16 02:36:17;;;;;;;7.10;5.30;;;;;;;;;;4980100;28;20458;-54
2022/03/16 02:38:43;;;;;;;5.90;5.40;;;;;;;;;;4983013;28;20422;-54
2022/03/16 02:41:09;;;;;;;7.77;5.30;;;;;;;;;;4979950;28;20941;-54
2022/03/16 02:43:35;;;;;;;6.80;5.70;;;;;;;;;;4962550;28;20427;-54
2022/03/16 02:46:01;;;;;;;6.00;5.30;;;;;;;;;;4983027;28;20484;-54
2022/03/16 02:48:27;;;;;;;9.47;6.40;;;;;;;;;;4983188;28;20829;-54
2022/03/16 02:50:53;;;;;;;6.20;5.60;;;;;;;;;;4981300;28;20941;-54
2022/03/16 02:53:19;;;;;;;9.93;6.90;;;;;;;;;;4979597;28;20471;-54
2022/03/16 02:55:46;;;;;;;8.87;6.97;;;;;;;;;;4980811;28;20419;-53
2022/03/16 02:58:13;;;;;;;13.03;6.63;;;;;;;;;;4986422;28;20427;-54
2022/03/16 03:00:39;;;;;;;9.63;6.37;;;;;;;;;;4979953;28;20442;-54
2022/03/16 03:03:04;;;;;;;8.17;7.03;;;;;;;;;;4983127;28;20947;-54
2022/03/16 03:05:30;;;;;;;10.00;7.60;;;;;;;;;;4965692;28;20438;-54
2022/03/16 03:07:56;;;;;;;13.10;7.27;;;;;;;;;;4978269;28;20474;-54
2022/03/16 03:10:22;;;;;;;11.10;7.20;;;;;;;;;;4982933;28;20215;-54
2022/03/16 03:12:48;;;;;;;14.03;7.07;;;;;;;;;;4981436;28;20454;-54
2022/03/16 03:15:15;;;;;;;12.27;7.30;;;;;;;;;;4979573;28;20446;-53
2022/03/16 03:17:42;;;;;;;15.63;8.80;;;;;;;;;;4980110;28;20412;-54
2022/03/16 03:20:08;;;;;;;14.17;9.73;;;;;;;;;;4982974;28;20422;-54
2022/03/16 03:22:35;;;;;;;14.47;8.80;;;;;;;;;;4982876;28;20418;-53
2022/03/16 03:25:01;;;;;;;13.33;8.23;;;;;;;;;;4979802;28;20676;-54
2022/03/16 03:27:27;;;;;;;13.73;8.03;;;;;;;;;;4979447;28;20430;-54
2022/03/16 03:29:53;;;;;;;11.87;8.00;;;;;;;;;;4983267;28;20414;-54
2022/03/16 03:32:19;;;;;;;15.27;8.30;;;;;;;;;;4986717;28;20469;-54
2022/03/16 03:34:47;;;;;;;14.10;8.70;;;;;;;;;;4985307;28;20422;-55
2022/03/16 03:37:17;;;;;;;13.93;8.17;;;;;;;;;;4965701;28;20514;-54
2022/03/16 03:39:43;;;;;;;15.57;8.60;;;;;;;;;;4983919;28;20914;-54
2022/03/16 03:42:09;;;;;;;10.73;7.70;;;;;;;;;;4968970;28;20432;-54
2022/03/16 03:44:38;;;;;;;10.87;7.90;;;;;;;;;;4986477;28;20897;-54
2022/03/16 03:47:05;;;;;;;11.00;7.30;;;;;;;;;;4990778;28;20893;-54
2022/03/16 03:49:35;;;;;;;10.57;8.00;;;;;;;;;;4965425;28;20474;-54
2022/03/16 03:52:01;;;;;;;11.23;7.90;;;;;;;;;;4986256;28;21115;-54
2022/03/16 03:54:27;;;;;;;9.67;7.80;;;;;;;;;;4985881;28;20831;-54
2022/03/16 03:56:54;;;;;;;13.93;7.20;;;;;;;;;;4986078;28;20430;-54
2022/03/16 03:59:20;;;;;;;11.07;7.97;;;;;;;;;;4986256;28;20426;-54
2022/03/16 04:01:46;;;;;;;16.33;8.10;;;;;;;;;;4985044;28;20426;-53
2022/03/16 04:04:12;;;;;;;13.80;8.33;;;;;;;;;;4982735;28;20930;-54
2022/03/16 04:06:38;;;;;;;8.87;6.90;;;;;;;;;;4982718;28;20921;-54
2022/03/16 04:09:04;;;;;;;12.73;7.83;;;;;;;;;;4985587;28;20609;-55
2022/03/16 04:11:30;;;;;;;9.43;6.33;;;;;;;;;;4982591;28;20462;-54
2022/03/16 04:13:57;;;;;;;14.23;8.03;;;;;;;;;;4985239;28;20433;-55
2022/03/16 04:16:23;;;;;;;13.00;7.97;;;;;;;;;;4985855;28;20422;-55
2022/03/16 04:18:49;;;;;;;8.83;7.83;;;;;;;;;;4984321;28;20418;-53
2022/03/16 04:21:15;;;;;;;14.33;7.70;;;;;;;;;;4982383;28;20463;-54
2022/03/16 04:23:41;;;;;;;15.53;9.80;;;;;;;;;;4982844;28;20435;-54
2022/03/16 04:26:07;;;;;;;12.23;8.40;;;;;;;;;;4988014;28;20789;-53
2022/03/16 04:28:33;;;;;;;15.83;7.90;;;;;;;;;;4986288;28;20434;-54
2022/03/16 04:31:02;;;;;;;12.57;7.90;;;;;;;;;;4985201;28;20524;-54
2022/03/16 04:33:29;;;;;;;14.30;8.30;;;;;;;;;;4985746;28;20426;-55
2022/03/16 04:35:55;;;;;;;16.70;8.63;;;;;;;;;;4987850;28;20429;-54
2022/03/16 04:38:21;;;;;;;14.43;8.10;;;;;;;;;;4994195;28;20426;-54
2022/03/16 04:40:48;;;;;;;13.00;8.57;;;;;;;;;;4965490;28;20438;-54
2022/03/16 04:43:14;;;;;;;13.80;8.27;;;;;;;;;;4982325;28;21124;-53
2022/03/16 04:45:40;;;;;;;12.63;8.10;;;;;;;;;;4982548;28;20964;-54
2022/03/16 04:48:08;;;;;;;18.23;8.67;;;;;;;;;;4985501;28;20437;-54
2022/03/16 04:50:37;;;;;;;14.53;9.33;;;;;;;;;;4968066;28;20801;-53
2022/03/16 04:53:03;;;;;;;12.80;8.67;;;;;;;;;;4989573;28;20462;-54
2022/03/16 04:55:29;;;;;;;13.87;8.00;;;;;;;;;;4981812;28;20470;-55
2022/03/16 04:57:55;;;;;;;13.40;7.50;;;;;;;;;;4989879;28;20438;-54
2022/03/16 05:00:21;;;;;;;18.53;9.57;;;;;;;;;;4981834;28;20430;-55
2022/03/16 05:02:48;;;;;;;10.50;7.27;;;;;;;;;;4983204;28;20913;-55
2022/03/16 05:05:14;;;;;;;12.23;8.40;;;;;;;;;;4985127;28;20449;-54
2022/03/16 05:07:40;;;;;;;14.50;7.83;;;;;;;;;;4980089;28;20419;-54
2022/03/16 05:10:07;;;;;;;10.85;7.40;;;;;;;;;;4984960;28;20541;-55
2022/03/16 05:12:51;;;;;;;11.00;7.87;;;;;;;;;;4985108;28;20433;-55
2022/03/16 05:15:18;;;;;;;8.70;6.53;;;;;;;;;;4981522;28;20464;-55
2022/03/16 05:17:44;;;;;;;12.50;7.97;;;;;;;;;;4982471;28;20427;-55
2022/03/16 05:20:11;;;;;;;15.53;9.00;;;;;;;;;;4984745;28;20422;-53
2022/03/16 05:22:41;;;;;;;12.90;8.30;;;;;;;;;;4984718;28;20418;-53
2022/03/16 05:25:07;;;;;;;22.90;10.20;;;;;;;;;;4987171;28;20450;-52
2022/03/16 05:27:33;;;;;;;13.60;9.60;;;;;;;;;;4987038;28;20422;-53
2022/03/16 05:29:59;;;;;;;18.67;10.53;;;;;;;;;;4987798;28;20840;-54
2022/03/16 05:32:25;;;;;;;15.33;9.37;;;;;;;;;;4987050;28;20469;-52
2022/03/16 05:34:51;;;;;;;19.27;10.50;;;;;;;;;;4984577;28;20944;-52
2022/03/16 05:37:17;;;;;;;17.10;10.50;;;;;;;;;;4982323;28;20421;-53
2022/03/16 05:39:43;;;;;;;16.33;9.80;;;;;;;;;;4982258;28;20419;-53
2022/03/16 05:42:10;;;;;;;17.37;10.17;;;;;;;;;;4985547;28;20422;-56
2022/03/16 05:44:36;;;;;;;21.23;10.50;;;;;;;;;;4985270;28;20429;-56
2022/03/16 05:47:02;;;;;;;21.50;12.03;;;;;;;;;;4981880;28;20522;-55
2022/03/16 05:49:28;;;;;;;17.83;10.93;;;;;;;;;;4981975;28;20477;-55
2022/03/16 05:51:54;;;;;;;17.37;10.80;;;;;;;;;;4982147;28;20940;-55
2022/03/16 05:54:20;;;;;;;21.60;12.10;;;;;;;;;;4984994;28;20462;-57
2022/03/16 05:56:46;;;;;;;23.40;13.20;;;;;;;;;;4985148;28;20493;-55
2022/03/16 05:59:12;;;;;;;26.30;12.23;;;;;;;;;;4984854;28;20518;-56
2022/03/16 06:01:38;;;;;;;28.10;13.23;;;;;;;;;;4984889;28;20919;-55
2022/03/16 06:04:05;;;;;;;24.27;12.63;;;;;;;;;;4981707;28;20427;-56
2022/03/16 06:06:31;;;;;;;21.73;13.70;;;;;;;;;;4963992;28;20793;-55
2022/03/16 06:08:57;;;;;;;21.23;13.37;;;;;;;;;;4983493;28;20418;-55
2022/03/16 06:11:23;;;;;;;26.73;15.03;;;;;;;;;;4979932;28;20529;-55
2022/03/16 06:13:49;;;;;;;23.00;14.33;;;;;;;;;;4981034;28;20951;-54
2022/03/16 06:16:15;;;;;;;23.10;13.47;;;;;;;;;;4983761;28;20939;-54
2022/03/16 06:18:41;;;;;;;22.90;13.47;;;;;;;;;;4983303;28;20426;-54
2022/03/16 06:21:07;;;;;;;25.57;14.07;;;;;;;;;;4962931;28;20431;-54
2022/03/16 06:23:35;;;;;;;25.37;13.50;;;;;;;;;;4980430;28;20434;-54
2022/03/16 06:26:04;;;;;;;25.43;14.37;;;;;;;;;;4983313;28;20976;-55
2022/03/16 06:28:31;;;;;;;27.73;13.93;;;;;;;;;;4982182;28;20434;-55
2022/03/16 06:30:57;;;;;;;21.43;13.20;;;;;;;;;;4980784;28;20465;-55
2022/03/16 06:33:23;;;;;;;23.60;11.93;;;;;;;;;;4980052;28;20958;-55
2022/03/16 06:35:49;;;;;;;25.13;13.10;;;;;;;;;;4981485;28;20827;-55
2022/03/16 06:38:15;;;;;;;24.70;14.30;;;;;;;;;;4983059;28;20930;-55
2022/03/16 06:40:41;;;;;;;20.90;13.17;;;;;;;;;;4982946;28;20886;-54
2022/03/16 06:43:07;;;;;;;22.93;13.20;;;;;;;;;;4979902;28;20493;-54
2022/03/16 06:45:33;;;;;;;19.33;13.30;;;;;;;;;;4979771;28;20455;-55
2022/03/16 06:48:00;;;;;;;22.07;12.13;;;;;;;;;;4982851;28;20540;-55
2022/03/16 06:50:27;;;;;;;23.93;12.83;;;;;;;;;;4983144;28;20458;-55
2022/03/16 06:52:54;;;;;;;26.37;13.30;;;;;;;;;;4980631;28;20553;-55
2022/03/16 06:55:20;;;;;;;20.10;12.70;;;;;;;;;;4980128;28;20423;-55
2022/03/16 06:57:46;;;;;;;23.00;13.37;;;;;;;;;;4987701;28;20430;-55
2022/03/16 07:00:13;;;;;;;15.87;11.83;;;;;;;;;;4979685;28;20415;-54
2022/03/16 07:02:51;;;;;;;17.73;12.30;;;;;;;;;;4979999;28;20419;-54
2022/03/16 07:05:17;;;;;;;17.30;11.30;;;;;;;;;;4985722;28;20421;-54
2022/03/16 07:07:43;;;;;;;19.37;12.03;;;;;;;;;;4982093;28;20773;-55
2022/03/16 07:10:09;;;;;;;21.50;11.63;;;;;;;;;;4987242;28;20901;-55
2022/03/16 07:12:35;;;;;;;19.90;11.53;;;;;;;;;;4986955;28;20183;-55
2022/03/16 07:15:01;;;;;;;23.10;13.30;;;;;;;;;;4983813;28;20438;-55
2022/03/16 07:17:27;;;;;;;25.10;12.73;;;;;;;;;;4983772;28;20188;-55
2022/03/16 07:19:53;;;;;;;25.10;13.13;;;;;;;;;;4985901;28;20187;-55
2022/03/16 07:22:19;;;;;;;16.47;12.50;;;;;;;;;;4986737;28;20784;-55
2022/03/16 07:24:45;;;;;;;21.03;13.20;;;;;;;;;;4985749;28;20785;-55
2022/03/16 07:27:12;;;;;;;21.03;13.70;;;;;;;;;;4983329;28;20522;-55
2022/03/16 07:29:38;;;;;;;22.40;13.10;;;;;;;;;;4983541;28;20654;-56
2022/03/16 07:32:04;;;;;;;21.13;14.20;;;;;;;;;;4986596;28;20465;-55
2022/03/16 07:34:31;;;;;;;23.77;12.70;;;;;;;;;;4969369;28;20430;-55
2022/03/16 07:36:57;;;;;;;21.90;13.57;;;;;;;;;;4966470;28;20418;-55
2022/03/16 07:39:23;;;;;;;29.33;14.33;;;;;;;;;;4983198;28;20819;-55
2022/03/16 07:41:49;;;;;;;24.17;14.10;;;;;;;;;;4984658;28;20468;-55
2022/03/16 07:44:15;;;;;;;24.30;13.73;;;;;;;;;;4969154;28;20517;-55
2022/03/16 07:46:41;;;;;;;18.80;13.20;;;;;;;;;;4985966;28;20920;-54
2022/03/16 07:49:07;;;;;;;24.60;13.40;;;;;;;;;;4982945;28;20431;-55
2022/03/16 07:51:33;;;;;;;23.17;11.70;;;;;;;;;;4982787;28;20481;-55
2022/03/16 07:54:00;;;;;;;26.13;13.97;;;;;;;;;;4990788;28;20511;-55
2022/03/16 07:56:25;;;;;;;26.40;15.03;;;;;;;;;;4988381;28;20513;-55
2022/03/16 07:58:52;;;;;;;33.47;13.40;;;;;;;;;;4986295;28;20969;-55
2022/03/16 08:01:18;;;;;;;26.83;14.40;;;;;;;;;;4986236;28;20179;-55
2022/03/16 08:03:44;;;;;;;22.70;14.67;;;;;;;;;;4985145;28;20951;-55
2022/03/16 08:06:11;;;;;;;25.73;13.97;;;;;;;;;;4982727;28;20423;-55
2022/03/16 08:08:39;;;;;;;26.87;15.20;;;;;;;;;;4972981;28;20797;-55
2022/03/16 08:11:06;;;;;;;27.27;15.53;;;;;;;;;;4990452;28;20541;-55
2022/03/16 08:13:32;;;;;;;25.37;14.80;;;;;;;;;;4981279;28;20474;-55
2022/03/16 08:15:58;;;;;;;28.13;16.30;;;;;;;;;;4985190;28;20425;-55
2022/03/16 08:18:24;;;;;;;28.33;15.27;;;;;;;;;;4985851;28;20783;-55
2022/03/16 08:20:50;;;;;;;23.60;14.13;;;;;;;;;;4983991;28;20432;-55
2022/03/16 08:23:16;;;;;;;25.67;14.53;;;;;;;;;;4982407;28;20937;-55
2022/03/16 08:25:42;;;;;;;27.03;16.13;;;;;;;;;;4983064;28;20478;-55
2022/03/16 08:28:08;;;;;;;23.53;14.10;;;;;;;;;;4985646;28;20488;-55
2022/03/16 08:30:34;;;;;;;26.73;15.50;;;;;;;;;;4984497;28;20987;-55
2022/03/16 08:33:01;;;;;;;26.80;15.43;;;;;;;;;;4965028;28;20628;-55
2022/03/16 08:35:27;;;;;;;28.50;15.53;;;;;;;;;;4982193;28;20445;-55
2022/03/16 08:37:53;;;;;;;26.30;15.90;;;;;;;;;;4983980;28;20447;-55
2022/03/16 08:40:20;;;;;;;30.37;15.00;;;;;;;;;;4985725;28;20937;-55
2022/03/16 08:42:46;;;;;;;21.10;12.23;;;;;;;;;;4983191;28;20191;-55
2022/03/16 08:45:12;;;;;;;23.70;14.80;;;;;;;;;;4981962;28;20482;-55
2022/03/16 08:47:38;;;;;;;27.70;14.70;;;;;;;;;;4981848;28;20419;-55
2022/03/16 08:50:06;;;;;;;23.50;14.23;;;;;;;;;;4985478;28;20505;-55
2022/03/16 08:52:32;;;;;;;28.13;15.97;;;;;;;;;;4984945;28;20482;-55
2022/03/16 08:54:59;;;;;;;24.40;13.17;;;;;;;;;;4982313;28;20453;-55
2022/03/16 08:57:25;;;;;;;30.73;15.70;;;;;;;;;;4988147;28;20431;-55
2022/03/16 08:59:53;;;;;;;24.27;14.50;;;;;;;;;;4965837;28;20430;-55
2022/03/16 09:02:19;;;;;;;26.47;14.53;;;;;;;;;;4981968;28;20438;-55
2022/03/16 09:04:45;;;;;;;27.13;14.27;;;;;;;;;;4982588;28;20977;-55
2022/03/16 09:07:12;;;;;;;24.10;13.97;;;;;;;;;;4983296;28;20453;-55
2022/03/16 09:09:39;;;;;;;22.07;14.00;;;;;;;;;;4981822;28;20430;-55
2022/03/16 09:12:05;;;;;;;35.40;15.47;;;;;;;;;;4984961;28;20505;-55
2022/03/16 09:14:31;;;;;;;26.63;14.63;;;;;;;;;;4985159;28;20433;-55
2022/03/16 09:16:57;;;;;;;22.17;14.37;;;;;;;;;;4982362;28;20426;-55
2022/03/16 09:19:23;;;;;;;19.67;12.90;;;;;;;;;;4981441;28;20423;-55
2022/03/16 09:21:50;;;;;;;23.13;13.20;;;;;;;;;;4982820;28;20721;-55
2022/03/16 09:24:17;;;;;;;22.60;15.10;;;;;;;;;;4984842;28;20450;-55
2022/03/16 09:26:43;;;;;;;34.23;16.67;;;;;;;;;;4983517;28;20476;-55
2022/03/16 09:29:10;;;;;;;32.20;16.13;;;;;;;;;;4981161;28;20419;-55
2022/03/16 09:31:37;;;;;;;25.67;15.83;;;;;;;;;;4981161;28;20565;-55
2022/03/16 09:34:07;;;;;;;24.23;15.03;;;;;;;;;;4984479;28;20795;-55
2022/03/16 09:36:33;;;;;;;24.63;13.43;;;;;;;;;;4984411;28;20419;-55
2022/03/16 09:38:59;;;;;;;26.47;14.67;;;;;;;;;;4981457;28;20422;-55
2022/03/16 09:41:28;;;;;;;22.70;12.20;;;;;;;;;;4981177;28;20562;-55
2022/03/16 09:43:54;;;;;;;22.07;14.07;;;;;;;;;;4983144;28;20521;-56
2022/03/16 09:46:24;;;;;;;27.27;14.07;;;;;;;;;;4984342;28;20466;-55
2022/03/16 09:48:50;;;;;;;18.00;13.00;;;;;;;;;;4982610;28;20429;-55
2022/03/16 09:51:19;;;;;;;30.60;12.80;;;;;;;;;;4980730;28;20470;-55
2022/03/16 09:53:45;;;;;;;26.00;13.47;;;;;;;;;;4981659;28;20471;-55
2022/03/16 09:56:12;;;;;;;26.13;12.20;;;;;;;;;;4984214;28;20426;-55
2022/03/16 09:58:38;;;;;;;20.87;11.70;;;;;;;;;;4984329;28;20446;-55
2022/03/16 10:01:07;;;;;;;19.13;11.33;;;;;;;;;;4984040;28;20515;-56
2022/03/16 10:03:35;;;;;;;27.40;13.10;;;;;;;;;;4983953;28;20840;-56
2022/03/16 10:06:01;;;;;;;18.37;11.90;;;;;;;;;;4980771;28;20478;-55
2022/03/16 10:08:31;;;;;;;23.10;12.30;;;;;;;;;;4982545;28;20426;-55
2022/03/16 10:13:48;;;;;;;21.10;14.67;;;;;;;;;;4981970;28;20490;-55
2022/03/16 10:16:14;;;;;;;29.80;13.90;;;;;;;;;;4983834;28;20505;-55
2022/03/16 10:18:40;;;;;;;24.23;12.93;;;;;;;;;;4983622;28;20418;-55
2022/03/16 10:21:06;;;;;;;23.97;12.77;;;;;;;;;;4980426;28;20513;-55
2022/03/16 10:23:32;;;;;;;18.20;13.73;;;;;;;;;;4980753;28;20422;-55
2022/03/16 10:25:59;;;;;;;24.40;13.80;;;;;;;;;;4983087;28;20437;-55
2022/03/16 10:28:29;;;;;;;22.70;12.43;;;;;;;;;;4983670;28;20422;-55
2022/03/16 10:30:57;;;;;;;25.27;13.97;;;;;;;;;;4980995;28;20958;-55
2022/03/16 10:33:24;;;;;;;21.43;13.53;;;;;;;;;;4980196;28;20546;-55
2022/03/16 10:35:55;;;;;;;17.03;12.30;;;;;;;;;;4981610;28;20928;-55
2022/03/16 10:38:21;;;;;;;18.60;12.63;;;;;;;;;;4983430;28;20925;-56
2022/03/16 10:40:47;;;;;;;17.67;12.20;;;;;;;;;;4982043;28;20428;-55
2022/03/16 10:48:58;;;;;;;20.80;12.07;;;;;;;;;;4982419;28;20425;-54
2022/03/16 10:51:24;;;;;;;14.70;9.90;;;;;;;;;;4979477;28;20458;-53
2022/03/16 10:53:52;;;;;;;18.27;12.90;;;;;;;;;;4963944;28;20474;-53
2022/03/16 10:56:18;;;;;;;32.10;12.90;;;;;;;;;;4983100;28;20433;-55
2022/03/16 10:58:46;;;;;;;22.30;10.90;;;;;;;;;;4983099;28;20449;-55
2022/03/16 11:01:13;;;;;;;18.33;10.90;;;;;;;;;;4983125;28;20468;-56
2022/03/16 11:03:41;;;;;;;20.80;12.47;;;;;;;;;;4983001;28;20434;-55
2022/03/16 11:06:08;;;;;;;22.43;14.13;;;;;;;;;;4979565;28;20426;-56
2022/03/16 11:08:36;;;;;;;21.37;13.90;;;;;;;;;;4982605;28;20424;-55
2022/03/16 11:13:49;;;;;;;15.90;11.43;;;;;;;;;;4981190;28;20422;-56
2022/03/16 11:16:19;;;;;;;21.80;13.77;;;;;;;;;;4982793;28;20504;-56
2022/03/16 11:18:46;;;;;;;21.50;12.37;;;;;;;;;;4982184;28;20513;-55
2022/03/16 11:21:13;;;;;;;18.27;12.40;;;;;;;;;;4978170;28;20455;-55
2022/03/16 11:26:36;;;;;;;20.93;15.07;;;;;;;;;;4982977;28;20500;-56
2022/03/16 11:29:32;;;;;;;23.00;14.03;;;;;;;;;;4962320;28;20915;-55
2022/03/16 11:32:09;;;;;;;26.37;13.37;;;;;;;;;;4965927;28;20474;-56
2022/03/16 11:34:36;;;;;;;23.30;14.67;;;;;;;;;;4965537;28;20504;-56
2022/03/16 11:37:09;;;;;;;20.80;13.40;;;;;;;;;;4979244;28;20442;-55
2022/03/16 11:39:43;;;;;;;23.60;12.80;;;;;;;;;;4979400;28;20776;-56
2022/03/16 11:42:09;;;;;;;21.90;13.07;;;;;;;;;;4982777;28;20936;-54
2022/03/16 11:44:35;;;;;;;21.77;13.67;;;;;;;;;;4982826;28;20429;-53
2022/03/16 11:47:11;;;;;;;22.40;15.10;;;;;;;;;;4979522;28;20435;-53
2022/03/16 11:49:38;;;;;;;24.60;15.63;;;;;;;;;;4979280;28;20429;-55
2022/03/16 11:52:05;;;;;;;18.90;13.60;;;;;;;;;;4985701;28;20461;-54
2022/03/16 11:54:47;;;;;;;23.90;15.00;;;;;;;;;;4986435;28;20429;-54
2022/03/16 11:57:14;;;;;;;21.10;14.57;;;;;;;;;;4987516;28;20835;-54
2022/03/16 11:59:44;;;;;;;22.13;14.07;;;;;;;;;;4986000;28;20549;-54
2022/03/16 12:02:22;;;;;;;21.80;14.17;;;;;;;;;;4982608;28;20423;-56
2022/03/16 12:04:48;;;;;;;21.83;15.10;;;;;;;;;;4983991;28;20434;-54
2022/03/16 12:07:17;;;;;;;23.50;16.47;;;;;;;;;;4984496;28;20501;-57
2022/03/16 12:09:46;;;;;;;20.70;15.00;;;;;;;;;;4983439;28;20437;-55
2022/03/16 12:12:51;;;;;;;19.97;14.43;;;;;;;;;;4985995;28;20513;-54
2022/03/16 12:15:23;;;;;;;24.90;15.07;;;;;;;;;;4982688;28;20411;-54
2022/03/16 12:17:49;;;;;;;20.57;14.20;;;;;;;;;;4984013;28;20419;-53
2022/03/16 12:20:17;;;;;;;29.87;14.70;;;;;;;;;;4985755;28;20487;-54
2022/03/16 12:22:47;;;;;;;21.00;14.73;;;;;;;;;;4985181;28;20277;-53
2022/03/16 12:25:26;;;;;;;20.37;14.47;;;;;;;;;;4982431;28;20802;-57
2022/03/16 12:30:44;;;;;;;24.07;16.80;;;;;;;;;;4985766;28;20512;-52
2022/03/16 12:33:16;;;;;;;21.67;15.03;;;;;;;;;;4985098;28;20454;-56
2022/03/16 12:35:43;;;;;;;21.30;14.93;;;;;;;;;;4983177;28;20418;-56
2022/03/16 12:38:10;;;;;;;23.37;14.43;;;;;;;;;;4980457;28;20429;-59
2022/03/16 12:43:28;;;;;;;25.40;16.13;;;;;;;;;;4988553;28;20428;-59
2022/03/16 12:46:13;;;;;;;21.73;14.60;;;;;;;;;;4982880;28;20818;-57
2022/03/16 12:48:40;;;;;;;22.73;15.10;;;;;;;;;;4982131;28;20427;-53
2022/03/16 12:51:06;;;;;;;25.97;15.70;;;;;;;;;;4985051;28;20458;-55
2022/03/16 12:53:46;;;;;;;18.70;14.23;;;;;;;;;;4985121;28;20489;-54
2022/03/16 12:56:15;;;;;;;21.23;15.60;;;;;;;;;;4986385;28;20484;-54
2022/03/16 13:01:45;;;;;;;18.30;14.13;;;;;;;;;;4983302;28;20397;-60
2022/03/16 13:04:11;;;;;;;26.47;15.93;;;;;;;;;;4978368;28;20426;-55
2022/03/16 13:06:37;;;;;;;20.63;14.17;;;;;;;;;;4984844;28;20414;-54
2022/03/16 13:09:07;;;;;;;22.20;14.17;;;;;;;;;;4984714;28;20270;-54
2022/03/16 13:11:34;;;;;;;21.50;12.67;;;;;;;;;;4981584;28;20617;-54
2022/03/16 13:14:05;;;;;;;24.70;15.20;;;;;;;;;;4984603;28;20421;-54
2022/03/16 13:16:38;;;;;;;22.90;14.98;;;;;;;;;;4984045;28;20460;-53
2022/03/16 13:19:04;;;;;;;16.87;13.07;;;;;;;;;;4989475;28;20176;-55
2022/03/16 13:21:31;;;;;;;20.40;14.07;;;;;;;;;;4981174;28;20454;-54
2022/03/16 13:24:04;;;;;;;18.97;13.63;;;;;;;;;;4988571;28;20501;-54
2022/03/16 13:26:30;;;;;;;17.23;12.23;;;;;;;;;;4984541;28;20958;-54
2022/03/16 13:29:00;;;;;;;22.53;14.00;;;;;;;;;;4984670;28;20777;-55
2022/03/16 13:31:30;;;;;;;19.03;11.50;;;;;;;;;;4983296;28;20492;-55
2022/03/16 13:34:01;;;;;;;17.93;12.60;;;;;;;;;;4980579;28;20422;-55
2022/03/16 13:36:34;;;;;;;17.50;12.43;;;;;;;;;;4980152;28;20850;-55
2022/03/16 13:39:02;;;;;;;18.00;12.93;;;;;;;;;;4984245;28;20462;-55
2022/03/16 13:41:28;;;;;;;19.23;12.80;;;;;;;;;;4981040;28;20968;-56
2022/03/16 13:44:05;;;;;;;17.97;11.80;;;;;;;;;;4983195;28;20439;-55
2022/03/16 13:46:40;;;;;;;23.90;13.93;;;;;;;;;;4984142;28;20178;-55
2022/03/16 13:49:15;;;;;;;16.33;11.00;;;;;;;;;;4984521;28;20448;-55
2022/03/16 13:52:02;;;;;;;15.47;11.57;;;;;;;;;;4983725;28;20457;-55
2022/03/16 13:54:29;;;;;;;17.43;10.80;;;;;;;;;;4967811;28;20470;-54
2022/03/16 13:56:55;;;;;;;16.83;12.00;;;;;;;;;;4989970;28;20430;-55
2022/03/16 13:59:21;;;;;;;13.77;10.17;;;;;;;;;;4984254;28;20517;-55
2022/03/16 14:01:48;;;;;;;15.67;10.60;;;;;;;;;;4982739;28;20437;-55
2022/03/16 14:04:21;;;;;;;16.80;12.13;;;;;;;;;;4979668;28;20437;-55
2022/03/16 14:06:48;;;;;;;16.97;11.67;;;;;;;;;;4981738;28;20445;-54
2022/03/16 14:09:13;;;;;;;17.80;11.27;;;;;;;;;;4982176;28;20550;-54
2022/03/16 14:11:39;;;;;;;13.00;10.03;;;;;;;;;;4980478;28;20577;-54
2022/03/16 14:14:11;;;;;;;15.13;11.43;;;;;;;;;;4983523;28;20201;-56
2022/03/16 14:16:40;;;;;;;14.90;10.33;;;;;;;;;;4983793;28;20278;-56
2022/03/16 14:19:26;;;;;;;14.13;10.67;;;;;;;;;;4987712;28;20502;-55
2022/03/16 14:21:52;;;;;;;20.00;12.03;;;;;;;;;;4982018;28;20422;-56
2022/03/16 14:24:18;;;;;;;17.20;11.07;;;;;;;;;;4983444;28;20950;-56
2022/03/16 14:26:44;;;;;;;16.17;11.37;;;;;;;;;;4982710;28;20422;-57
2022/03/16 14:29:10;;;;;;;12.73;9.90;;;;;;;;;;4980090;28;20427;-57
2022/03/16 14:31:37;;;;;;;14.07;10.00;;;;;;;;;;4981220;28;20206;-58
2022/03/16 14:34:05;;;;;;;17.17;10.57;;;;;;;;;;4984080;28;20418;-57
2022/03/16 14:36:32;;;;;;;15.53;11.20;;;;;;;;;;4984605;28;20424;-58
2022/03/16 14:38:59;;;;;;;12.13;9.60;;;;;;;;;;4981766;28;20416;-56
2022/03/16 14:41:28;;;;;;;15.40;10.30;;;;;;;;;;4981197;28;20430;-56
2022/03/16 14:43:54;;;;;;;17.27;11.80;;;;;;;;;;4983243;28;20906;-54
2022/03/16 14:46:20;;;;;;;16.90;11.50;;;;;;;;;;4984591;28;20425;-56
2022/03/16 14:48:46;;;;;;;16.00;10.17;;;;;;;;;;4982631;28;20429;-55